Time;durP1;ratioP1;P1;durP2;ratioP2;P2;SDS_P1;SDS_P2;PMS_P1;PMS_P2;Temp;Humidity;BMP_temperature;BMP_pressure;BME280_temperature;BME280_humidity;BME280_pressure;Samples;Min_cycle;Max_cycle;Signal;HPM_P1;HPM_P2
2022/06/27 00:01:40;;;;;;;1.70;1.60;;;28.50;48.40;;;;;;5122468;28;20516;-82
2022/06/27 00:04:08;;;;;;;1.50;1.50;;;28.60;48.40;;;;;;5124739;28;20481;-84
2022/06/27 00:06:36;;;;;;;1.40;1.30;;;28.60;48.30;;;;;;5126838;28;20448;-83
2022/06/27 00:09:05;;;;;;;1.50;1.40;;;28.50;48.40;;;;;;5127204;28;20839;-83
2022/06/27 00:11:36;;;;;;;1.37;1.37;;;28.50;48.40;;;;;;5116362;28;20436;-83
2022/06/27 00:14:05;;;;;;;1.63;1.53;;;28.60;48.40;;;;;;5124796;28;20443;-83
2022/06/27 00:16:33;;;;;;;1.77;1.67;;;28.50;48.20;;;;;;5125490;28;20460;-83
2022/06/27 00:19:17;;;;;;;2.90;1.40;;;28.50;48.40;;;;;;5124864;28;20439;-83
2022/06/27 00:21:45;;;;;;;1.30;1.20;;;28.50;48.40;;;;;;5124780;28;20462;-83
2022/06/27 00:24:13;;;;;;;1.13;1.13;;;28.50;48.50;;;;;;5124247;28;20530;-83
2022/06/27 00:26:41;;;;;;;1.30;1.30;;;28.50;48.40;;;;;;5116945;28;20462;-83
2022/06/27 00:29:11;;;;;;;1.53;1.47;;;28.40;48.40;;;;;;5114758;28;20449;-83
2022/06/27 00:31:49;;;;;;;1.50;1.40;;;28.40;48.40;;;;;;5120774;28;20489;-83
2022/06/27 00:34:17;;;;;;;1.37;1.30;;;28.40;48.30;;;;;;5125386;28;20459;-83
2022/06/27 00:36:45;;;;;;;1.13;1.13;;;28.40;48.40;;;;;;5124505;28;20470;-82
2022/06/27 00:39:13;;;;;;;1.27;1.27;;;28.40;48.30;;;;;;5120553;28;20463;-82
2022/06/27 00:41:41;;;;;;;1.47;1.37;;;28.40;48.30;;;;;;5119750;28;20459;-83
2022/06/27 00:44:10;;;;;;;1.30;1.30;;;28.40;48.40;;;;;;5109729;28;20563;-82
2022/06/27 00:46:38;;;;;;;1.47;1.40;;;28.30;48.40;;;;;;5111875;28;20467;-82
2022/06/27 00:49:06;;;;;;;1.50;1.50;;;28.30;48.30;;;;;;5119286;28;20458;-82
2022/06/27 00:51:34;;;;;;;1.30;1.17;;;28.30;48.40;;;;;;5119070;28;20560;-82
2022/06/27 00:54:01;;;;;;;1.80;1.27;;;28.20;48.50;;;;;;5121513;28;20810;-82
2022/06/27 00:56:29;;;;;;;1.30;1.30;;;28.20;48.40;;;;;;5110825;28;20456;-82
2022/06/27 00:58:57;;;;;;;1.50;1.40;;;28.20;48.50;;;;;;5109954;28;20437;-82
2022/06/27 01:01:26;;;;;;;1.27;1.27;;;28.20;48.60;;;;;;5106975;27;20499;-82
2022/06/27 01:03:55;;;;;;;1.23;1.23;;;28.10;48.50;;;;;;5119025;28;20460;-82
2022/06/27 01:06:22;;;;;;;1.40;1.40;;;28.10;48.60;;;;;;5118665;28;20451;-82
2022/06/27 01:08:50;;;;;;;1.40;1.40;;;28.10;48.60;;;;;;5109655;28;20436;-82
2022/06/27 01:11:23;;;;;;;1.30;1.30;;;28.10;48.60;;;;;;5109830;28;20464;-82
2022/06/27 01:13:54;;;;;;;1.43;1.33;;;28.10;48.50;;;;;;5118116;28;20532;-82
2022/06/27 01:16:23;;;;;;;1.50;1.50;;;28.00;48.60;;;;;;5119523;28;20505;-82
2022/06/27 01:18:52;;;;;;;1.93;1.40;;;28.00;48.60;;;;;;5117015;28;20452;-82
2022/06/27 01:21:21;;;;;;;1.90;1.40;;;28.00;48.70;;;;;;5118934;28;20483;-82
2022/06/27 01:23:50;;;;;;;1.40;1.40;;;28.00;48.70;;;;;;5119412;28;20630;-82
2022/06/27 01:26:18;;;;;;;1.40;1.40;;;28.00;48.70;;;;;;5119037;28;20810;-83
2022/06/27 01:28:47;;;;;;;1.17;1.17;;;27.90;48.60;;;;;;5119392;28;20515;-82
2022/06/27 01:31:15;;;;;;;1.40;1.30;;;28.00;48.70;;;;;;5114723;28;20554;-82
2022/06/27 01:33:43;;;;;;;1.50;1.40;;;27.90;49.30;;;;;;5119054;28;20450;-82
2022/06/27 01:38:58;;;;;;;1.50;1.40;;;28.00;48.70;;;;;;5121523;28;20534;-82
2022/06/27 01:41:26;;;;;;;1.37;1.37;;;27.90;48.60;;;;;;5123526;28;20435;-82
2022/06/27 01:43:55;;;;;;;1.20;1.20;;;27.80;48.80;;;;;;5123400;28;20551;-82
2022/06/27 01:46:22;;;;;;;1.30;1.30;;;27.80;48.60;;;;;;5122676;28;20467;-82
2022/06/27 01:48:50;;;;;;;1.63;1.63;;;27.80;48.60;;;;;;5123121;28;20444;-82
2022/06/27 01:51:18;;;;;;;1.43;1.33;;;27.80;48.90;;;;;;5122448;28;20456;-82
2022/06/27 01:53:51;;;;;;;1.40;1.30;;;27.80;48.60;;;;;;5122354;28;20468;-82
2022/06/27 01:56:20;;;;;;;2.50;1.60;;;27.80;48.80;;;;;;5122648;28;20450;-82
2022/06/27 01:58:48;;;;;;;1.50;1.40;;;27.80;48.80;;;;;;5123228;28;20450;-82
2022/06/27 02:01:16;;;;;;;1.47;1.20;;;27.70;48.70;;;;;;5123220;28;20474;-82
2022/06/27 02:03:44;;;;;;;1.20;1.10;;;27.70;48.80;;;;;;5123066;28;20450;-82
2022/06/27 02:06:12;;;;;;;1.57;1.20;;;27.70;48.90;;;;;;5122077;28;20531;-82
2022/06/27 02:08:41;;;;;;;1.17;1.13;;;27.70;48.80;;;;;;5121980;28;20448;-82
2022/06/27 02:11:09;;;;;;;1.43;1.43;;;27.70;48.90;;;;;;5117089;28;20444;-82
2022/06/27 02:13:38;;;;;;;1.20;1.20;;;27.70;48.80;;;;;;5122652;28;20521;-82
2022/06/27 02:16:07;;;;;;;1.77;1.70;;;27.70;48.80;;;;;;5122630;28;20454;-82
2022/06/27 02:18:35;;;;;;;1.63;1.53;;;27.60;48.60;;;;;;5122291;28;20447;-82
2022/06/27 02:21:03;;;;;;;2.30;1.67;;;27.60;48.70;;;;;;5122617;28;20447;-82
2022/06/27 02:23:31;;;;;;;1.70;1.60;;;27.70;48.70;;;;;;5122606;28;20486;-82
2022/06/27 02:25:59;;;;;;;1.60;1.50;;;27.80;48.60;;;;;;5121357;28;20528;-83
2022/06/27 02:28:28;;;;;;;4.43;1.33;;;27.80;48.60;;;;;;5122291;28;20482;-82
2022/06/27 02:30:57;;;;;;;1.20;1.20;;;27.80;48.80;;;;;;5122951;28;20447;-82
2022/06/27 02:33:32;;;;;;;1.87;1.60;;;27.80;49.00;;;;;;5122801;28;20457;-82
2022/06/27 02:36:00;;;;;;;1.40;1.40;;;27.70;49.00;;;;;;5123807;28;20518;-82
2022/06/27 02:38:28;;;;;;;1.50;1.50;;;27.60;49.20;;;;;;5123897;28;20512;-82
2022/06/27 02:40:55;;;;;;;1.47;1.40;;;27.60;49.00;;;;;;5122602;28;20542;-82
2022/06/27 02:43:23;;;;;;;1.50;1.40;;;27.60;49.30;;;;;;5123130;28;20519;-82
2022/06/27 02:45:51;;;;;;;1.50;1.50;;;27.60;49.30;;;;;;5119075;28;20455;-82
2022/06/27 02:48:20;;;;;;;1.37;1.37;;;27.60;49.30;;;;;;5127124;28;20435;-82
2022/06/27 02:50:48;;;;;;;1.47;1.47;;;27.60;49.30;;;;;;5127031;28;20435;-82
2022/06/27 02:53:16;;;;;;;1.63;1.53;;;27.50;49.30;;;;;;5126785;28;20475;-82
2022/06/27 02:55:44;;;;;;;1.20;1.20;;;27.60;49.30;;;;;;5120516;28;20450;-81
2022/06/27 02:58:15;;;;;;;2.23;2.00;;;27.60;49.20;;;;;;5121445;28;20505;-81
2022/06/27 03:00:43;;;;;;;1.40;1.40;;;27.50;49.10;;;;;;5120962;28;21023;-82
2022/06/27 03:03:13;;;;;;;1.30;1.20;;;27.50;49.40;;;;;;5122147;28;20490;-82
2022/06/27 03:05:58;;;;;;;1.40;1.30;;;27.50;49.30;;;;;;5120562;28;20468;-81
2022/06/27 03:08:26;;;;;;;1.30;1.30;;;27.50;49.20;;;;;;5125234;28;20431;-82
2022/06/27 03:10:54;;;;;;;2.00;1.33;;;27.50;49.30;;;;;;5130015;28;20418;-82
2022/06/27 03:13:22;;;;;;;1.70;1.60;;;27.40;49.30;;;;;;5133873;28;20486;-82
2022/06/27 03:15:50;;;;;;;1.57;1.47;;;27.50;49.30;;;;;;5126924;28;20522;-82
2022/06/27 03:18:18;;;;;;;1.57;1.50;;;27.50;49.30;;;;;;5127535;28;20440;-82
2022/06/27 03:20:50;;;;;;;1.40;1.30;;;27.40;49.40;;;;;;5127380;28;20496;-82
2022/06/27 03:23:22;;;;;;;1.97;1.53;;;27.40;49.30;;;;;;5126093;28;20471;-82
2022/06/27 03:25:51;;;;;;;2.33;1.40;;;27.40;49.50;;;;;;5126288;28;20475;-82
2022/06/27 03:28:21;;;;;;;1.53;1.43;;;27.40;49.30;;;;;;5125762;28;20442;-82
2022/06/27 03:30:49;;;;;;;1.63;1.63;;;27.40;49.50;;;;;;5125948;28;20430;-82
2022/06/27 03:33:18;;;;;;;1.40;1.30;;;27.40;49.40;;;;;;5122911;28;20463;-82
2022/06/27 03:35:45;;;;;;;1.37;1.27;;;27.40;49.30;;;;;;5120567;28;20453;-82
2022/06/27 03:38:13;;;;;;;1.73;1.63;;;27.30;49.30;;;;;;5119830;28;20489;-82
2022/06/27 03:40:43;;;;;;;1.60;1.50;;;27.40;49.20;;;;;;5120767;28;20414;-82
2022/06/27 03:43:15;;;;;;;1.63;1.63;;;27.30;49.30;;;;;;5119700;28;20452;-81
2022/06/27 03:45:44;;;;;;;1.30;1.30;;;27.30;49.20;;;;;;5115781;28;20472;-82
2022/06/27 03:49:59;;;;;;;2.40;1.30;;;27.30;49.20;;;;;;5121506;28;20463;-82
2022/06/27 03:50:59;;;;;;;1.30;1.30;;;27.40;49.20;;;;;;5121138;28;20534;-82
2022/06/27 03:53:27;;;;;;;1.47;1.47;;;27.30;49.20;;;;;;5123255;28;20479;-82
2022/06/27 03:55:56;;;;;;;1.40;1.40;;;27.40;49.60;;;;;;5122853;28;20421;-81
2022/06/27 03:58:24;;;;;;;1.20;1.20;;;27.30;49.40;;;;;;5120636;28;20455;-81
2022/06/27 04:00:52;;;;;;;1.10;1.10;;;27.20;49.50;;;;;;5121867;28;20446;-82
2022/06/27 04:03:20;;;;;;;1.40;1.40;;;27.30;49.60;;;;;;5122996;28;20521;-81
2022/06/27 04:05:48;;;;;;;1.40;1.40;;;27.20;49.50;;;;;;5120783;28;20448;-82
2022/06/27 04:08:16;;;;;;;1.60;1.50;;;27.20;49.40;;;;;;5119190;28;20514;-81
2022/06/27 04:10:44;;;;;;;1.47;1.40;;;27.20;49.50;;;;;;5120554;28;20439;-81
2022/06/27 04:13:13;;;;;;;1.50;1.40;;;27.20;49.50;;;;;;5118987;28;20460;-82
2022/06/27 04:15:40;;;;;;;1.50;1.50;;;27.20;49.60;;;;;;5118943;28;20435;-82
2022/06/27 04:18:09;;;;;;;1.30;1.30;;;27.10;49.50;;;;;;5118232;28;20556;-81
2022/06/27 04:20:36;;;;;;;1.40;1.20;;;27.10;49.50;;;;;;5120583;28;20538;-82
2022/06/27 04:23:06;;;;;;;3.63;1.40;;;27.10;49.50;;;;;;5120211;28;20474;-81
2022/06/27 04:25:34;;;;;;;1.73;1.63;;;27.10;49.50;;;;;;5117763;28;20464;-82
2022/06/27 04:28:07;;;;;;;2.50;1.70;;;27.10;49.40;;;;;;5119309;28;20984;-81
2022/06/27 04:30:36;;;;;;;1.27;1.27;;;27.10;49.50;;;;;;5118967;28;20458;-82
2022/06/27 04:33:05;;;;;;;1.20;1.20;;;27.10;49.50;;;;;;5119898;28;20460;-82
2022/06/27 04:35:33;;;;;;;1.40;1.30;;;27.10;49.50;;;;;;5118176;28;20425;-82
2022/06/27 04:38:01;;;;;;;1.30;1.20;;;27.10;49.60;;;;;;5119989;28;20422;-82
2022/06/27 04:40:29;;;;;;;1.53;1.43;;;27.10;49.60;;;;;;5121019;28;20444;-81
2022/06/27 04:42:57;;;;;;;1.43;1.43;;;27.10;49.50;;;;;;5121339;28;20540;-82
2022/06/27 04:45:25;;;;;;;1.20;1.20;;;27.10;49.20;;;;;;5121990;28;21060;-82
2022/06/27 04:47:55;;;;;;;1.40;1.33;;;27.00;49.40;;;;;;5122292;28;20490;-82
2022/06/27 04:50:25;;;;;;;1.40;1.30;;;27.10;49.50;;;;;;5121206;28;20451;-82
2022/06/27 04:52:54;;;;;;;1.40;1.30;;;27.10;49.60;;;;;;5122249;28;20427;-82
2022/06/27 04:55:22;;;;;;;1.30;1.20;;;27.10;49.20;;;;;;5125211;28;20471;-82
2022/06/27 04:57:50;;;;;;;1.53;1.40;;;27.20;49.50;;;;;;5124568;28;20467;-82
2022/06/27 05:00:19;;;;;;;1.40;1.40;;;27.10;49.60;;;;;;5122967;28;20421;-82
2022/06/27 05:02:49;;;;;;;1.30;1.20;;;27.20;49.60;;;;;;5122520;28;20467;-82
2022/06/27 05:05:32;;;;;;;2.30;1.47;;;27.10;49.60;;;;;;5122291;28;20626;-82
2022/06/27 05:08:00;;;;;;;1.50;1.40;;;27.10;49.50;;;;;;5120857;28;20452;-82
2022/06/27 05:10:29;;;;;;;1.63;1.53;;;27.10;49.60;;;;;;5123174;28;20468;-82
2022/06/27 05:12:57;;;;;;;1.50;1.50;;;27.10;49.60;;;;;;5122605;28;20468;-82
2022/06/27 05:15:25;;;;;;;1.30;1.30;;;27.10;49.40;;;;;;5122713;28;20950;-82
2022/06/27 05:17:53;;;;;;;1.40;1.30;;;27.10;49.50;;;;;;5120697;28;21028;-81
2022/06/27 05:20:23;;;;;;;1.13;1.13;;;27.10;49.50;;;;;;5123757;28;20456;-81
2022/06/27 05:22:51;;;;;;;1.20;1.10;;;27.10;49.30;;;;;;5124340;28;20473;-82
2022/06/27 05:25:19;;;;;;;1.20;1.20;;;27.10;49.60;;;;;;5120445;28;20438;-82
2022/06/27 05:27:47;;;;;;;1.27;1.27;;;27.10;49.40;;;;;;5123224;28;20456;-81
2022/06/27 05:30:15;;;;;;;1.20;1.20;;;27.10;49.50;;;;;;5123080;28;20475;-81
2022/06/27 05:32:43;;;;;;;1.97;1.83;;;27.10;49.40;;;;;;5122470;28;20455;-82
2022/06/27 05:35:11;;;;;;;1.40;1.30;;;27.10;49.40;;;;;;5122556;28;20486;-82
2022/06/27 05:37:43;;;;;;;1.43;1.27;;;27.00;49.70;;;;;;5123570;28;20436;-82
2022/06/27 05:40:15;;;;;;;1.60;1.50;;;27.00;49.60;;;;;;5124286;28;20487;-81
2022/06/27 05:42:43;;;;;;;1.40;1.30;;;27.00;49.60;;;;;;5121859;28;20474;-82
2022/06/27 05:45:11;;;;;;;1.43;1.43;;;27.00;49.50;;;;;;5121698;28;22356;-83
2022/06/27 05:47:43;;;;;;;1.30;1.30;;;27.00;49.30;;;;;;5119387;28;20475;-83
2022/06/27 05:50:13;;;;;;;1.40;1.30;;;27.00;49.60;;;;;;5119999;28;20438;-83
2022/06/27 05:52:43;;;;;;;1.70;1.60;;;27.00;49.60;;;;;;5118413;28;20438;-83
2022/06/27 05:55:11;;;;;;;1.90;1.47;;;27.00;49.60;;;;;;5117957;28;20446;-83
2022/06/27 05:57:41;;;;;;;1.30;1.30;;;27.00;49.50;;;;;;5117983;28;20452;-83
2022/06/27 06:00:11;;;;;;;2.40;1.47;;;27.00;49.40;;;;;;5117147;28;20471;-83
2022/06/27 06:02:39;;;;;;;1.70;1.60;;;27.00;49.30;;;;;;5117438;28;20455;-83
2022/06/27 06:05:09;;;;;;;1.60;1.50;;;27.00;49.50;;;;;;5117641;28;20505;-83
2022/06/27 06:07:37;;;;;;;2.33;1.40;;;27.00;49.40;;;;;;5117851;28;20422;-83
2022/06/27 06:10:08;;;;;;;1.70;1.60;;;26.90;49.40;;;;;;5117511;28;21054;-83
2022/06/27 06:12:36;;;;;;;1.63;1.53;;;26.90;49.40;;;;;;5118573;28;20465;-83
2022/06/27 06:15:05;;;;;;;1.53;1.43;;;26.90;49.50;;;;;;5119351;28;20527;-83
2022/06/27 06:17:34;;;;;;;2.00;1.90;;;26.90;49.50;;;;;;5115655;28;20486;-83
2022/06/27 06:20:05;;;;;;;1.97;1.83;;;26.90;49.70;;;;;;5117532;28;20440;-83
2022/06/27 06:22:33;;;;;;;1.60;1.50;;;26.90;49.40;;;;;;5117029;28;20466;-83
2022/06/27 06:25:01;;;;;;;1.60;1.50;;;26.90;49.40;;;;;;5116441;28;20436;-83
2022/06/27 06:27:31;;;;;;;1.57;1.47;;;26.90;49.40;;;;;;5115785;28;20539;-83
2022/06/27 06:30:02;;;;;;;2.70;1.63;;;26.90;49.60;;;;;;5118318;28;20475;-83
2022/06/27 06:32:30;;;;;;;1.63;1.53;;;26.90;49.50;;;;;;5117945;28;20468;-83
2022/06/27 06:35:02;;;;;;;1.67;1.57;;;26.90;49.50;;;;;;5110455;28;20530;-83
2022/06/27 06:37:32;;;;;;;1.73;1.63;;;26.90;49.50;;;;;;5117805;28;20444;-83
2022/06/27 06:40:03;;;;;;;1.60;1.50;;;26.90;49.50;;;;;;5118239;28;20454;-83
2022/06/27 06:42:34;;;;;;;1.80;1.70;;;26.90;49.60;;;;;;5117943;28;20488;-84
2022/06/27 06:45:03;;;;;;;3.60;1.40;;;26.90;49.60;;;;;;5119040;28;20934;-83
2022/06/27 06:47:33;;;;;;;1.70;1.60;;;26.90;49.50;;;;;;5117785;28;20822;-83
2022/06/27 06:50:05;;;;;;;1.87;1.67;;;26.90;49.70;;;;;;5116805;28;20430;-83
2022/06/27 06:52:39;;;;;;;1.77;1.50;;;26.90;49.40;;;;;;5118915;28;20431;-83
2022/06/27 06:55:09;;;;;;;1.67;1.57;;;26.90;49.40;;;;;;5120112;28;20526;-83
2022/06/27 06:57:40;;;;;;;1.50;1.40;;;26.90;49.50;;;;;;5119771;28;20439;-83
2022/06/27 07:00:09;;;;;;;1.90;1.80;;;26.90;49.30;;;;;;5119917;28;20452;-83
2022/06/27 07:02:37;;;;;;;1.50;1.40;;;27.00;49.30;;;;;;5118877;28;20468;-83
2022/06/27 07:05:08;;;;;;;2.50;1.70;;;27.00;49.30;;;;;;5117579;28;20517;-83
2022/06/27 07:07:37;;;;;;;1.67;1.50;;;27.00;49.20;;;;;;5119122;28;20438;-83
2022/06/27 07:10:08;;;;;;;1.77;1.67;;;27.00;49.20;;;;;;5119551;28;20439;-83
2022/06/27 07:12:41;;;;;;;1.77;1.67;;;27.00;48.90;;;;;;5117947;28;20502;-83
2022/06/27 07:15:12;;;;;;;1.57;1.30;;;27.10;49.00;;;;;;5118778;28;20525;-84
2022/06/27 07:17:43;;;;;;;1.43;1.33;;;27.10;48.80;;;;;;5119298;28;20435;-83
2022/06/27 07:20:12;;;;;;;1.63;1.53;;;27.20;48.70;;;;;;5116334;28;20425;-83
2022/06/27 07:22:42;;;;;;;1.40;1.30;;;27.20;48.60;;;;;;5118149;28;20459;-83
2022/06/27 07:25:10;;;;;;;1.70;1.60;;;27.30;48.60;;;;;;5119198;28;20438;-83
2022/06/27 07:27:40;;;;;;;1.97;1.30;;;27.30;48.60;;;;;;5118394;28;20474;-83
2022/06/27 07:30:10;;;;;;;2.23;1.60;;;27.40;48.40;;;;;;5118720;28;20410;-83
2022/06/27 07:32:39;;;;;;;1.40;1.40;;;27.50;48.60;;;;;;5117604;28;20521;-83
2022/06/27 07:35:09;;;;;;;1.37;1.27;;;27.60;48.20;;;;;;5121431;28;20931;-83
2022/06/27 07:37:39;;;;;;;1.47;1.37;;;27.60;48.00;;;;;;5121088;28;20529;-83
2022/06/27 07:40:09;;;;;;;1.60;1.50;;;27.70;48.00;;;;;;5122137;28;20415;-83
2022/06/27 07:42:46;;;;;;;1.10;1.10;;;27.70;47.90;;;;;;5121661;28;20467;-83
2022/06/27 07:45:19;;;;;;;1.47;1.37;;;27.60;48.00;;;;;;5121753;28;20414;-83
2022/06/27 07:47:48;;;;;;;1.40;1.30;;;27.60;47.90;;;;;;5113610;28;20479;-83
2022/06/27 07:50:36;;;;;;;1.40;1.30;;;27.60;48.00;;;;;;5115333;28;20518;-83
2022/06/27 07:53:14;;;;;;;1.53;1.43;;;27.60;48.10;;;;;;5119838;28;20546;-83
2022/06/27 07:55:46;;;;;;;1.53;1.43;;;27.60;48.20;;;;;;5118619;28;20497;-83
2022/06/27 07:58:17;;;;;;;1.43;1.33;;;27.50;47.90;;;;;;5129811;28;20430;-83
2022/06/27 08:00:47;;;;;;;2.63;1.53;;;27.60;48.20;;;;;;5126186;28;20432;-83
2022/06/27 08:06:05;;;;;;;1.23;1.23;;;27.60;48.00;;;;;;5123412;28;20410;-83
2022/06/27 08:08:35;;;;;;;1.23;1.13;;;27.50;48.20;;;;;;5117196;28;21062;-83
2022/06/27 08:11:03;;;;;;;1.70;1.60;;;27.60;48.20;;;;;;5115158;28;20415;-83
2022/06/27 08:13:33;;;;;;;1.57;1.47;;;27.60;48.20;;;;;;5119939;28;20535;-83
2022/06/27 08:16:02;;;;;;;1.27;1.17;;;27.60;48.10;;;;;;5119175;28;20413;-84
2022/06/27 08:18:31;;;;;;;1.40;1.30;;;27.60;48.20;;;;;;5120357;28;20416;-84
2022/06/27 08:20:59;;;;;;;1.30;1.20;;;27.60;48.10;;;;;;5121619;28;20424;-84
2022/06/27 08:23:27;;;;;;;1.50;1.40;;;27.60;48.00;;;;;;5109779;28;20441;-84
2022/06/27 08:25:55;;;;;;;2.77;1.20;;;27.60;48.10;;;;;;5117470;28;20425;-84
2022/06/27 08:28:37;;;;;;;2.07;1.50;;;27.50;48.10;;;;;;5118509;28;20470;-84
2022/06/27 08:31:16;;;;;;;1.60;1.50;;;27.60;48.20;;;;;;5113276;28;20443;-84
2022/06/27 08:33:52;;;;;;;1.60;1.50;;;27.60;48.20;;;;;;5121156;28;20440;-84
2022/06/27 08:36:21;;;;;;;1.90;1.40;;;27.60;48.00;;;;;;5121024;27;20548;-84
2022/06/27 08:38:50;;;;;;;1.53;1.43;;;27.50;48.10;;;;;;5120910;28;20422;-85
2022/06/27 08:41:30;;;;;;;1.40;1.30;;;27.50;48.10;;;;;;5119037;28;20511;-84
2022/06/27 08:44:04;;;;;;;1.87;1.40;;;27.60;48.20;;;;;;5104780;28;20458;-84
2022/06/27 08:49:32;;;;;;;1.37;1.27;;;27.70;47.90;;;;;;5112141;28;20444;-84
2022/06/27 08:52:02;;;;;;;1.60;1.30;;;27.80;47.90;;;;;;5120749;28;20467;-84
2022/06/27 08:54:30;;;;;;;1.63;1.40;;;27.90;47.80;;;;;;5119930;28;20471;-83
2022/06/27 08:57:07;;;;;;;1.57;1.30;;;28.10;47.70;;;;;;5120310;28;20474;-84
2022/06/27 08:59:36;;;;;;;1.60;1.50;;;28.20;47.40;;;;;;5120777;28;20439;-83
2022/06/27 09:02:06;;;;;;;1.60;1.50;;;28.40;47.30;;;;;;5115977;28;20524;-83
2022/06/27 09:04:57;;;;;;;1.43;1.33;;;28.50;47.10;;;;;;5116967;28;20428;-83
2022/06/27 09:07:46;;;;;;;1.50;1.40;;;28.50;47.30;;;;;;5117202;28;20467;-83
2022/06/27 09:10:31;;;;;;;1.30;1.20;;;28.50;47.10;;;;;;5116589;28;20531;-82
2022/06/27 09:13:06;;;;;;;1.37;1.30;;;28.50;47.00;;;;;;5112200;28;20483;-82
2022/06/27 09:15:52;;;;;;;2.60;1.13;;;28.60;47.40;;;;;;5116649;28;20493;-82
2022/06/27 09:18:23;;;;;;;1.30;1.30;;;28.50;47.00;;;;;;5115815;28;20407;-83
2022/06/27 09:20:52;;;;;;;1.40;1.30;;;28.40;47.00;;;;;;5116489;28;20523;-83
2022/06/27 09:23:38;;;;;;;1.37;1.20;;;28.40;47.10;;;;;;5116664;28;20571;-83
2022/06/27 09:26:09;;;;;;;1.40;1.40;;;28.20;47.20;;;;;;5116000;28;20536;-83
2022/06/27 09:28:39;;;;;;;1.40;1.30;;;28.30;47.40;;;;;;5116020;28;20473;-83
2022/06/27 09:31:10;;;;;;;1.23;1.23;;;28.20;47.50;;;;;;5116689;28;20441;-83
2022/06/27 09:33:41;;;;;;;2.60;1.30;;;28.20;47.50;;;;;;5116272;28;20462;-82
2022/06/27 09:36:14;;;;;;;1.60;1.50;;;28.20;47.40;;;;;;5116731;28;20511;-83
2022/06/27 09:38:43;;;;;;;1.53;1.23;;;28.10;47.60;;;;;;5114560;28;20507;-83
2022/06/27 09:41:12;;;;;;;1.17;1.17;;;28.10;47.60;;;;;;5116609;28;20447;-83
2022/06/27 09:43:46;;;;;;;1.37;1.27;;;28.10;47.50;;;;;;5114822;28;20521;-83
2022/06/27 09:46:15;;;;;;;1.13;1.13;;;28.00;47.50;;;;;;5116217;27;20418;-83
2022/06/27 09:48:45;;;;;;;1.70;1.60;;;28.00;47.60;;;;;;5115709;28;20442;-83
2022/06/27 09:51:15;;;;;;;1.53;1.43;;;28.00;47.60;;;;;;5115800;28;20457;-83
2022/06/27 09:53:47;;;;;;;1.50;1.37;;;28.00;47.90;;;;;;5115875;28;20431;-82
2022/06/27 09:56:16;;;;;;;1.30;1.30;;;28.10;47.70;;;;;;5115095;28;20543;-83
2022/06/27 09:58:44;;;;;;;1.67;1.50;;;28.00;47.60;;;;;;5113889;28;20413;-82
2022/06/27 10:01:32;;;;;;;1.50;1.40;;;28.00;47.70;;;;;;5099487;28;20431;-82
2022/06/27 10:04:01;;;;;;;1.40;1.30;;;28.00;47.70;;;;;;5116167;28;20441;-83
2022/06/27 10:06:30;;;;;;;1.43;1.43;;;28.10;47.90;;;;;;5116046;28;20428;-82
2022/06/27 10:08:58;;;;;;;1.40;1.40;;;28.10;47.70;;;;;;5115451;28;20467;-83
2022/06/27 10:11:26;;;;;;;1.30;1.20;;;28.20;47.80;;;;;;5115815;28;20434;-83
2022/06/27 10:14:20;;;;;;;2.40;1.20;;;28.20;47.60;;;;;;5114204;28;20925;-83
2022/06/27 10:16:51;;;;;;;1.97;1.63;;;28.40;47.60;;;;;;5113428;28;20424;-83
2022/06/27 10:19:22;;;;;;;1.70;1.60;;;28.40;47.50;;;;;;5115455;28;20444;-84
2022/06/27 10:21:51;;;;;;;1.60;1.50;;;28.30;47.20;;;;;;5115740;28;20473;-83
2022/06/27 10:24:43;;;;;;;1.50;1.40;;;28.30;47.20;;;;;;5115762;28;20504;-83
2022/06/27 10:27:30;;;;;;;1.60;1.50;;;28.30;47.50;;;;;;5113336;28;20483;-83
2022/06/27 10:29:59;;;;;;;1.60;1.50;;;28.20;47.50;;;;;;5114604;28;20502;-82
2022/06/27 10:32:46;;;;;;;1.67;1.50;;;28.20;47.70;;;;;;5107396;22;20495;-83
2022/06/27 10:35:18;;;;;;;1.67;1.57;;;28.20;47.60;;;;;;5071744;28;20425;-83
2022/06/27 10:37:56;;;;;;;2.10;1.70;;;28.10;47.50;;;;;;5066377;28;20487;-83
2022/06/27 10:40:53;;;;;;;1.37;1.30;;;28.10;47.70;;;;;;5067577;28;20422;-83
2022/06/27 10:43:46;;;;;;;3.03;1.73;;;28.10;47.90;;;;;;5044202;28;20448;-84
2022/06/27 10:46:39;;;;;;;1.97;1.87;;;28.10;47.90;;;;;;5046173;28;20477;-84
2022/06/27 10:49:18;;;;;;;1.70;1.60;;;28.10;48.00;;;;;;5043415;28;20509;-83
2022/06/27 10:51:47;;;;;;;1.80;1.70;;;28.10;48.00;;;;;;5043543;28;20443;-83
2022/06/27 10:54:16;;;;;;;1.75;1.65;;;28.10;48.00;;;;;;5045516;28;20321;-83
2022/06/27 10:56:45;;;;;;;1.57;1.47;;;28.10;48.00;;;;;;5049822;28;20212;-83
2022/06/27 11:00:00;;;;;;;1.93;1.93;;;28.20;47.90;;;;;;5034404;28;20445;-83
2022/06/27 11:02:29;;;;;;;1.60;1.50;;;28.20;47.80;;;;;;5053047;28;20913;-82
2022/06/27 11:04:58;;;;;;;1.63;1.53;;;28.20;47.80;;;;;;5054306;28;20478;-83
2022/06/27 11:07:28;;;;;;;1.70;1.60;;;28.20;47.70;;;;;;5037254;28;20473;-83
2022/06/27 11:09:56;;;;;;;1.70;1.60;;;28.30;47.70;;;;;;5038570;28;20484;-83
2022/06/27 11:12:33;;;;;;;1.60;1.50;;;28.20;47.60;;;;;;5054097;28;20444;-82
2022/06/27 11:15:01;;;;;;;1.30;1.30;;;28.30;47.60;;;;;;5053103;28;20444;-82
2022/06/27 11:17:30;;;;;;;1.80;1.60;;;28.30;47.60;;;;;;5055151;28;20414;-82
2022/06/27 11:20:26;;;;;;;1.60;1.50;;;28.40;47.60;;;;;;5051414;28;20441;-83
2022/06/27 11:23:06;;;;;;;1.63;1.60;;;28.40;47.50;;;;;;5041850;28;20490;-83
2022/06/27 11:25:36;;;;;;;1.60;1.53;;;28.40;47.60;;;;;;5046661;28;20449;-83
2022/06/27 11:33:33;;;;;;;1.33;1.30;;;28.30;47.70;;;;;;5056542;28;20565;-83
2022/06/27 11:36:01;;;;;;;1.67;1.57;;;28.20;47.70;;;;;;5058300;28;20423;-83
2022/06/27 11:38:31;;;;;;;1.63;1.53;;;28.20;47.90;;;;;;5039358;28;20485;-83
2022/06/27 11:41:03;;;;;;;1.57;1.47;;;28.20;48.00;;;;;;5039314;28;20390;-82
2022/06/27 11:43:53;;;;;;;1.40;1.30;;;28.20;47.90;;;;;;5038165;28;20462;-82
2022/06/27 11:46:22;;;;;;;1.83;1.50;;;28.10;47.90;;;;;;5038481;28;20436;-82
2022/06/27 11:48:52;;;;;;;1.30;1.30;;;28.10;48.00;;;;;;5042428;28;20476;-82
2022/06/27 11:51:21;;;;;;;1.60;1.50;;;28.10;48.00;;;;;;5061087;28;20559;-81
2022/06/27 11:53:54;;;;;;;1.43;1.33;;;28.10;48.30;;;;;;5060746;28;20445;-81
2022/06/27 11:56:23;;;;;;;1.50;1.50;;;28.20;48.20;;;;;;5062285;28;20410;-82
2022/06/27 11:58:52;;;;;;;2.50;1.60;;;28.30;48.20;;;;;;5057971;28;20466;-81
2022/06/27 12:01:20;;;;;;;1.70;1.60;;;28.40;48.30;;;;;;5044572;28;20535;-81
2022/06/27 12:04:11;;;;;;;1.60;1.57;;;28.40;47.90;;;;;;5056319;28;20549;-81
2022/06/27 12:06:46;;;;;;;1.60;1.50;;;28.50;48.00;;;;;;5044374;28;20972;-81
2022/06/27 12:09:15;;;;;;;1.70;1.60;;;28.60;47.90;;;;;;5037395;28;20570;-81
2022/06/27 12:11:55;;;;;;;4.30;2.23;;;28.60;48.10;;;;;;5050165;28;20528;-81
2022/06/27 12:14:23;;;;;;;2.80;1.60;;;28.80;47.70;;;;;;5055701;28;20823;-81
2022/06/27 12:16:52;;;;;;;1.50;1.40;;;28.80;47.70;;;;;;5057091;28;20436;-81
2022/06/27 12:19:26;;;;;;;1.70;1.60;;;28.70;47.70;;;;;;5040877;28;20509;-81
2022/06/27 12:21:54;;;;;;;1.80;1.70;;;28.70;47.70;;;;;;5048758;28;20470;-81
2022/06/27 12:24:23;;;;;;;1.50;1.40;;;28.70;47.40;;;;;;5041774;28;20448;-81
2022/06/27 12:26:51;;;;;;;1.60;1.50;;;28.70;47.80;;;;;;5043264;28;20454;-81
2022/06/27 12:29:19;;;;;;;1.40;1.30;;;28.70;47.60;;;;;;5056694;28;20466;-81
2022/06/27 12:31:47;;;;;;;1.53;1.43;;;28.70;47.90;;;;;;5056500;28;20474;-81
2022/06/27 12:34:15;;;;;;;1.93;1.20;;;28.70;48.00;;;;;;5049416;28;20451;-81
2022/06/27 12:36:43;;;;;;;1.60;1.50;;;28.80;48.10;;;;;;5039174;28;20414;-82
2022/06/27 12:39:11;;;;;;;1.10;1.10;;;28.90;48.00;;;;;;5048586;28;20453;-82
2022/06/27 12:41:42;;;;;;;1.30;1.30;;;28.90;47.60;;;;;;5038991;28;20418;-82
2022/06/27 12:44:10;;;;;;;1.70;1.60;;;29.00;47.60;;;;;;5032570;28;20490;-82
2022/06/27 12:46:38;;;;;;;1.47;1.37;;;29.10;47.60;;;;;;5043873;28;20931;-81
2022/06/27 12:49:22;;;;;;;1.83;1.73;;;29.10;47.40;;;;;;5055573;28;20604;-81
2022/06/27 12:51:51;;;;;;;1.67;1.57;;;29.20;47.30;;;;;;5056148;28;20467;-81
2022/06/27 12:54:18;;;;;;;1.53;1.30;;;29.20;47.60;;;;;;5052285;28;20483;-81
2022/06/27 12:56:48;;;;;;;1.50;1.40;;;29.10;47.30;;;;;;5060128;28;20514;-81
2022/06/27 12:59:15;;;;;;;3.47;1.60;;;29.00;47.50;;;;;;5060765;28;20496;-81
2022/06/27 13:01:43;;;;;;;1.70;1.60;;;28.90;47.40;;;;;;5057121;28;20446;-81
2022/06/27 13:04:11;;;;;;;1.37;1.37;;;28.80;47.80;;;;;;5055765;28;20443;-82
2022/06/27 13:06:39;;;;;;;1.53;1.43;;;28.80;48.00;;;;;;5055151;28;20475;-81
2022/06/27 13:09:06;;;;;;;1.57;1.47;;;28.80;48.10;;;;;;5054848;28;20468;-82
2022/06/27 13:11:34;;;;;;;1.70;1.60;;;28.70;48.00;;;;;;5040585;28;20434;-81
2022/06/27 13:14:03;;;;;;;1.27;1.17;;;28.70;48.10;;;;;;5048044;28;20447;-81
2022/06/27 13:16:31;;;;;;;1.23;1.23;;;28.60;48.20;;;;;;5056443;28;20450;-81
2022/06/27 13:18:59;;;;;;;1.87;1.77;;;28.50;48.20;;;;;;5055973;28;20515;-81
2022/06/27 13:21:27;;;;;;;1.70;1.60;;;28.50;48.40;;;;;;5035262;28;20439;-82